Terminal Aerodrome Forecast
Issued by NWS

Home | Current Version | Previous Version | Text Only | Print | Product List | Glossary On
Versions: 1 2 3 4 5 6 7 8 9 10 11 12 13 14 15 16 17 18 19 20 21 22 23 24 25 26 27 28
000
FTUS44 KHGX 281121
TAFSGR
TAF
KSGR 281121Z 2812/2912 VRB03KT P6SM FEW250
     FM282000 16009KT P6SM SCT250
     FM290300 18004KT P6SM SCT250
     FM291000 19003KT 6SM BR SCT250=

USA.gov is the U.S. government's official web portal to all federal, state and local government web resources and services.